sensor_id;sensor_type;location;lat;lon;timestamp;temperature;humidity
13892;DHT22;7016;48.172;8.058;2023-11-22T00:00:29;9.00;99.90
13892;DHT22;7016;48.172;8.058;2023-11-22T00:02:55;8.80;99.90
13892;DHT22;7016;48.172;8.058;2023-11-22T00:05:20;8.70;99.90
13892;DHT22;7016;48.172;8.058;2023-11-22T00:07:46;8.70;99.90
13892;DHT22;7016;48.172;8.058;2023-11-22T00:10:13;8.80;99.90
13892;DHT22;7016;48.172;8.058;2023-11-22T00:12:39;8.90;99.90
13892;DHT22;7016;48.172;8.058;2023-11-22T00:15:05;8.90;99.90
13892;DHT22;7016;48.172;8.058;2023-11-22T00:17:32;8.90;99.90
13892;DHT22;7016;48.172;8.058;2023-11-22T00:19:58;8.90;99.90
13892;DHT22;7016;48.172;8.058;2023-11-22T00:22:26;8.90;99.90
13892;DHT22;7016;48.172;8.058;2023-11-22T00:24:53;8.80;99.90
13892;DHT22;7016;48.172;8.058;2023-11-22T00:27:19;8.90;99.90
13892;DHT22;7016;48.172;8.058;2023-11-22T00:29:45;8.90;99.90
13892;DHT22;7016;48.172;8.058;2023-11-22T00:32:12;8.90;99.90
13892;DHT22;7016;48.172;8.058;2023-11-22T00:34:37;9.00;99.90
13892;DHT22;7016;48.172;8.058;2023-11-22T00:37:04;9.00;99.90
13892;DHT22;7016;48.172;8.058;2023-11-22T00:39:30;9.00;99.90
13892;DHT22;7016;48.172;8.058;2023-11-22T00:41:55;9.10;99.90
13892;DHT22;7016;48.172;8.058;2023-11-22T00:44:21;9.00;99.90
13892;DHT22;7016;48.172;8.058;2023-11-22T00:46:47;9.00;99.90
13892;DHT22;7016;48.172;8.058;2023-11-22T00:49:12;8.90;99.90
13892;DHT22;7016;48.172;8.058;2023-11-22T00:51:38;8.90;99.90
13892;DHT22;7016;48.172;8.058;2023-11-22T00:54:04;9.00;99.90
13892;DHT22;7016;48.172;8.058;2023-11-22T00:56:30;9.00;99.90
13892;DHT22;7016;48.172;8.058;2023-11-22T00:58:56;9.00;99.90
13892;DHT22;7016;48.172;8.058;2023-11-22T01:01:25;9.00;99.90
13892;DHT22;7016;48.172;8.058;2023-11-22T01:03:51;9.00;99.90
13892;DHT22;7016;48.172;8.058;2023-11-22T01:06:17;9.00;99.90
13892;DHT22;7016;48.172;8.058;2023-11-22T01:08:43;9.00;99.90
13892;DHT22;7016;48.172;8.058;2023-11-22T01:11:09;9.10;99.90
13892;DHT22;7016;48.172;8.058;2023-11-22T01:13:35;9.00;99.90
13892;DHT22;7016;48.172;8.058;2023-11-22T01:16:10;9.00;99.90
13892;DHT22;7016;48.172;8.058;2023-11-22T01:18:36;9.00;99.90
13892;DHT22;7016;48.172;8.058;2023-11-22T01:21:02;9.00;99.90
13892;DHT22;7016;48.172;8.058;2023-11-22T01:23:32;9.00;99.90
13892;DHT22;7016;48.172;8.058;2023-11-22T01:26:00;9.00;99.90
13892;DHT22;7016;48.172;8.058;2023-11-22T01:28:29;9.10;99.90
13892;DHT22;7016;48.172;8.058;2023-11-22T01:31:00;9.10;99.90
13892;DHT22;7016;48.172;8.058;2023-11-22T01:33:26;9.00;99.90
13892;DHT22;7016;48.172;8.058;2023-11-22T01:35:52;9.00;99.90
13892;DHT22;7016;48.172;8.058;2023-11-22T01:38:18;9.00;99.90
13892;DHT22;7016;48.172;8.058;2023-11-22T01:40:47;9.00;99.90
13892;DHT22;7016;48.172;8.058;2023-11-22T01:43:22;9.00;99.90
13892;DHT22;7016;48.172;8.058;2023-11-22T01:45:54;9.00;99.90
13892;DHT22;7016;48.172;8.058;2023-11-22T01:48:22;9.00;99.90
13892;DHT22;7016;48.172;8.058;2023-11-22T01:50:48;9.00;99.90
13892;DHT22;7016;48.172;8.058;2023-11-22T01:53:15;9.10;99.90
13892;DHT22;7016;48.172;8.058;2023-11-22T01:55:44;9.00;99.90
13892;DHT22;7016;48.172;8.058;2023-11-22T01:58:12;9.00;99.90
13892;DHT22;7016;48.172;8.058;2023-11-22T02:00:49;8.90;99.90
13892;DHT22;7016;48.172;8.058;2023-11-22T02:03:15;9.00;99.90
13892;DHT22;7016;48.172;8.058;2023-11-22T02:05:42;9.10;99.90
13892;DHT22;7016;48.172;8.058;2023-11-22T02:08:11;9.10;99.90
13892;DHT22;7016;48.172;8.058;2023-11-22T02:10:38;9.10;99.90
13892;DHT22;7016;48.172;8.058;2023-11-22T02:13:05;9.00;99.90
13892;DHT22;7016;48.172;8.058;2023-11-22T02:15:36;9.10;99.90
13892;DHT22;7016;48.172;8.058;2023-11-22T02:18:03;9.00;99.90
13892;DHT22;7016;48.172;8.058;2023-11-22T02:20:30;9.00;99.90
13892;DHT22;7016;48.172;8.058;2023-11-22T02:22:56;9.00;99.90
13892;DHT22;7016;48.172;8.058;2023-11-22T02:25:22;9.00;99.90
13892;DHT22;7016;48.172;8.058;2023-11-22T02:27:48;9.00;99.90
13892;DHT22;7016;48.172;8.058;2023-11-22T02:30:14;9.10;99.90
13892;DHT22;7016;48.172;8.058;2023-11-22T02:32:41;9.00;99.90
13892;DHT22;7016;48.172;8.058;2023-11-22T02:35:07;9.10;99.90
13892;DHT22;7016;48.172;8.058;2023-11-22T02:37:36;9.10;99.90
13892;DHT22;7016;48.172;8.058;2023-11-22T02:42:35;9.10;99.90
13892;DHT22;7016;48.172;8.058;2023-11-22T02:45:00;9.10;99.90
13892;DHT22;7016;48.172;8.058;2023-11-22T02:47:26;9.10;99.90
13892;DHT22;7016;48.172;8.058;2023-11-22T02:49:53;9.00;99.90
13892;DHT22;7016;48.172;8.058;2023-11-22T02:52:20;9.10;99.90
13892;DHT22;7016;48.172;8.058;2023-11-22T02:54:47;9.00;99.90
13892;DHT22;7016;48.172;8.058;2023-11-22T02:57:13;9.00;99.90
13892;DHT22;7016;48.172;8.058;2023-11-22T02:59:43;9.10;99.90
13892;DHT22;7016;48.172;8.058;2023-11-22T03:02:08;9.10;99.90
13892;DHT22;7016;48.172;8.058;2023-11-22T03:04:34;9.00;99.90
13892;DHT22;7016;48.172;8.058;2023-11-22T03:07:00;9.00;99.90
13892;DHT22;7016;48.172;8.058;2023-11-22T03:09:25;8.90;99.90
13892;DHT22;7016;48.172;8.058;2023-11-22T03:11:52;9.00;99.90
13892;DHT22;7016;48.172;8.058;2023-11-22T03:14:18;9.00;99.90
13892;DHT22;7016;48.172;8.058;2023-11-22T03:16:44;9.00;99.90
13892;DHT22;7016;48.172;8.058;2023-11-22T03:19:11;8.90;99.90
13892;DHT22;7016;48.172;8.058;2023-11-22T03:21:39;8.80;99.90
13892;DHT22;7016;48.172;8.058;2023-11-22T03:24:09;8.90;99.90
13892;DHT22;7016;48.172;8.058;2023-11-22T03:26:35;8.90;99.90
13892;DHT22;7016;48.172;8.058;2023-11-22T03:29:01;8.80;99.90
13892;DHT22;7016;48.172;8.058;2023-11-22T03:31:27;8.70;99.90
13892;DHT22;7016;48.172;8.058;2023-11-22T03:33:54;8.70;99.90
13892;DHT22;7016;48.172;8.058;2023-11-22T03:36:20;8.80;99.90
13892;DHT22;7016;48.172;8.058;2023-11-22T03:38:46;8.80;99.90
13892;DHT22;7016;48.172;8.058;2023-11-22T03:41:12;8.80;99.90
13892;DHT22;7016;48.172;8.058;2023-11-22T03:43:37;8.80;99.90
13892;DHT22;7016;48.172;8.058;2023-11-22T03:46:03;8.80;99.90
13892;DHT22;7016;48.172;8.058;2023-11-22T03:48:29;8.60;99.90
13892;DHT22;7016;48.172;8.058;2023-11-22T03:50:54;8.70;99.90
13892;DHT22;7016;48.172;8.058;2023-11-22T03:53:20;8.70;99.90
13892;DHT22;7016;48.172;8.058;2023-11-22T03:55:48;8.50;99.90
13892;DHT22;7016;48.172;8.058;2023-11-22T03:58:13;8.50;99.90
13892;DHT22;7016;48.172;8.058;2023-11-22T04:00:39;8.50;99.90
13892;DHT22;7016;48.172;8.058;2023-11-22T04:03:05;8.60;99.90
13892;DHT22;7016;48.172;8.058;2023-11-22T04:05:30;8.60;99.90
13892;DHT22;7016;48.172;8.058;2023-11-22T04:07:57;8.60;99.90
13892;DHT22;7016;48.172;8.058;2023-11-22T04:10:23;8.50;99.90
13892;DHT22;7016;48.172;8.058;2023-11-22T04:12:49;8.50;99.90
13892;DHT22;7016;48.172;8.058;2023-11-22T04:15:15;8.50;99.90
13892;DHT22;7016;48.172;8.058;2023-11-22T04:17:41;8.60;99.90
13892;DHT22;7016;48.172;8.058;2023-11-22T04:20:07;8.50;99.90
13892;DHT22;7016;48.172;8.058;2023-11-22T04:22:44;8.40;99.90
13892;DHT22;7016;48.172;8.058;2023-11-22T04:25:12;8.40;99.90
13892;DHT22;7016;48.172;8.058;2023-11-22T04:27:41;8.50;99.90
13892;DHT22;7016;48.172;8.058;2023-11-22T04:30:08;8.40;99.90
13892;DHT22;7016;48.172;8.058;2023-11-22T04:32:36;8.50;99.90
13892;DHT22;7016;48.172;8.058;2023-11-22T04:35:02;8.40;99.90
13892;DHT22;7016;48.172;8.058;2023-11-22T04:37:30;8.40;99.90
13892;DHT22;7016;48.172;8.058;2023-11-22T04:40:01;8.40;99.90
13892;DHT22;7016;48.172;8.058;2023-11-22T04:42:28;8.40;99.90
13892;DHT22;7016;48.172;8.058;2023-11-22T04:44:54;8.30;99.90
13892;DHT22;7016;48.172;8.058;2023-11-22T04:47:20;8.20;99.90
13892;DHT22;7016;48.172;8.058;2023-11-22T04:49:47;8.10;99.90
13892;DHT22;7016;48.172;8.058;2023-11-22T04:52:13;7.80;99.90
13892;DHT22;7016;48.172;8.058;2023-11-22T04:54:39;7.80;99.90
13892;DHT22;7016;48.172;8.058;2023-11-22T04:57:05;7.80;99.90
13892;DHT22;7016;48.172;8.058;2023-11-22T04:59:31;7.80;99.90
13892;DHT22;7016;48.172;8.058;2023-11-22T05:01:57;7.60;99.90
13892;DHT22;7016;48.172;8.058;2023-11-22T05:04:23;7.50;99.90
13892;DHT22;7016;48.172;8.058;2023-11-22T05:06:48;7.50;99.90
13892;DHT22;7016;48.172;8.058;2023-11-22T05:09:14;7.50;99.90
13892;DHT22;7016;48.172;8.058;2023-11-22T05:11:41;7.50;99.90
13892;DHT22;7016;48.172;8.058;2023-11-22T05:14:07;7.80;99.90
13892;DHT22;7016;48.172;8.058;2023-11-22T05:16:33;7.80;99.90
13892;DHT22;7016;48.172;8.058;2023-11-22T05:18:59;7.80;99.90
13892;DHT22;7016;48.172;8.058;2023-11-22T05:21:25;7.60;99.90
13892;DHT22;7016;48.172;8.058;2023-11-22T05:23:51;7.60;99.90
13892;DHT22;7016;48.172;8.058;2023-11-22T05:26:20;7.50;99.90
13892;DHT22;7016;48.172;8.058;2023-11-22T05:28:46;7.50;99.90
13892;DHT22;7016;48.172;8.058;2023-11-22T05:31:13;7.40;99.90
13892;DHT22;7016;48.172;8.058;2023-11-22T05:33:39;7.40;99.90
13892;DHT22;7016;48.172;8.058;2023-11-22T05:36:06;7.40;99.90
13892;DHT22;7016;48.172;8.058;2023-11-22T05:38:32;7.30;99.90
13892;DHT22;7016;48.172;8.058;2023-11-22T05:40:59;7.30;99.90
13892;DHT22;7016;48.172;8.058;2023-11-22T05:43:25;7.20;99.90
13892;DHT22;7016;48.172;8.058;2023-11-22T05:45:55;7.20;99.90
13892;DHT22;7016;48.172;8.058;2023-11-22T05:48:21;7.20;99.90
13892;DHT22;7016;48.172;8.058;2023-11-22T05:50:47;7.10;99.90
13892;DHT22;7016;48.172;8.058;2023-11-22T05:53:14;7.20;99.90
13892;DHT22;7016;48.172;8.058;2023-11-22T05:55:50;7.10;99.90
13892;DHT22;7016;48.172;8.058;2023-11-22T05:58:17;7.10;99.90
13892;DHT22;7016;48.172;8.058;2023-11-22T06:00:46;7.10;99.90
13892;DHT22;7016;48.172;8.058;2023-11-22T06:03:12;7.20;99.90
13892;DHT22;7016;48.172;8.058;2023-11-22T06:05:39;7.20;99.90
13892;DHT22;7016;48.172;8.058;2023-11-22T06:08:04;7.20;99.90
13892;DHT22;7016;48.172;8.058;2023-11-22T06:10:30;7.20;99.90
13892;DHT22;7016;48.172;8.058;2023-11-22T06:12:56;7.20;99.90
13892;DHT22;7016;48.172;8.058;2023-11-22T06:15:21;7.10;99.90
13892;DHT22;7016;48.172;8.058;2023-11-22T06:17:48;7.20;99.90
13892;DHT22;7016;48.172;8.058;2023-11-22T06:20:16;7.20;99.90
13892;DHT22;7016;48.172;8.058;2023-11-22T06:22:48;6.90;99.90
13892;DHT22;7016;48.172;8.058;2023-11-22T06:25:13;6.70;99.90
13892;DHT22;7016;48.172;8.058;2023-11-22T06:27:39;6.80;99.90
13892;DHT22;7016;48.172;8.058;2023-11-22T06:30:06;6.70;99.90
13892;DHT22;7016;48.172;8.058;2023-11-22T06:32:32;6.70;99.90
13892;DHT22;7016;48.172;8.058;2023-11-22T06:34:58;6.50;99.90
13892;DHT22;7016;48.172;8.058;2023-11-22T06:37:24;6.60;99.90
13892;DHT22;7016;48.172;8.058;2023-11-22T06:39:51;6.50;99.90
13892;DHT22;7016;48.172;8.058;2023-11-22T06:42:17;6.60;99.90
13892;DHT22;7016;48.172;8.058;2023-11-22T06:44:43;6.30;99.90
13892;DHT22;7016;48.172;8.058;2023-11-22T06:47:08;6.30;99.90
13892;DHT22;7016;48.172;8.058;2023-11-22T06:49:34;6.40;99.90
13892;DHT22;7016;48.172;8.058;2023-11-22T06:52:00;6.50;99.90
13892;DHT22;7016;48.172;8.058;2023-11-22T06:54:26;6.40;99.90
13892;DHT22;7016;48.172;8.058;2023-11-22T06:56:52;6.40;99.90
13892;DHT22;7016;48.172;8.058;2023-11-22T06:59:18;6.40;99.90
13892;DHT22;7016;48.172;8.058;2023-11-22T07:01:44;6.40;99.90
13892;DHT22;7016;48.172;8.058;2023-11-22T07:04:10;6.20;99.90
13892;DHT22;7016;48.172;8.058;2023-11-22T07:06:37;6.20;99.90
13892;DHT22;7016;48.172;8.058;2023-11-22T07:09:04;6.20;99.90
13892;DHT22;7016;48.172;8.058;2023-11-22T07:11:29;6.20;99.90
13892;DHT22;7016;48.172;8.058;2023-11-22T07:13:56;6.20;99.90
13892;DHT22;7016;48.172;8.058;2023-11-22T07:16:23;6.10;99.90
13892;DHT22;7016;48.172;8.058;2023-11-22T07:18:50;6.10;99.90
13892;DHT22;7016;48.172;8.058;2023-11-22T07:21:16;6.10;99.90
13892;DHT22;7016;48.172;8.058;2023-11-22T07:23:42;6.10;99.90
13892;DHT22;7016;48.172;8.058;2023-11-22T07:26:10;6.10;99.90
13892;DHT22;7016;48.172;8.058;2023-11-22T07:28:36;6.00;99.90
13892;DHT22;7016;48.172;8.058;2023-11-22T07:31:03;6.00;99.90
13892;DHT22;7016;48.172;8.058;2023-11-22T07:33:32;6.20;99.90
13892;DHT22;7016;48.172;8.058;2023-11-22T07:35:57;6.10;99.90
13892;DHT22;7016;48.172;8.058;2023-11-22T07:38:24;6.10;99.90
13892;DHT22;7016;48.172;8.058;2023-11-22T07:40:50;6.10;99.90
13892;DHT22;7016;48.172;8.058;2023-11-22T07:43:16;6.00;99.90
13892;DHT22;7016;48.172;8.058;2023-11-22T07:45:42;6.10;99.90
13892;DHT22;7016;48.172;8.058;2023-11-22T07:48:10;6.10;99.90
13892;DHT22;7016;48.172;8.058;2023-11-22T07:50:37;6.00;99.90
13892;DHT22;7016;48.172;8.058;2023-11-22T07:53:04;6.10;99.90
13892;DHT22;7016;48.172;8.058;2023-11-22T07:55:31;6.10;99.90
13892;DHT22;7016;48.172;8.058;2023-11-22T07:57:56;6.00;99.90
13892;DHT22;7016;48.172;8.058;2023-11-22T08:00:22;6.10;99.90
13892;DHT22;7016;48.172;8.058;2023-11-22T08:02:48;6.00;99.90
13892;DHT22;7016;48.172;8.058;2023-11-22T08:05:15;6.10;99.90
13892;DHT22;7016;48.172;8.058;2023-11-22T08:07:42;6.10;99.90
13892;DHT22;7016;48.172;8.058;2023-11-22T08:10:10;6.00;99.90
13892;DHT22;7016;48.172;8.058;2023-11-22T08:12:45;6.00;99.90
13892;DHT22;7016;48.172;8.058;2023-11-22T08:15:11;5.80;99.90
13892;DHT22;7016;48.172;8.058;2023-11-22T08:17:40;5.80;99.90
13892;DHT22;7016;48.172;8.058;2023-11-22T08:20:06;5.70;99.90
13892;DHT22;7016;48.172;8.058;2023-11-22T08:22:35;5.50;99.90
13892;DHT22;7016;48.172;8.058;2023-11-22T08:25:04;5.50;99.90
13892;DHT22;7016;48.172;8.058;2023-11-22T08:27:30;7.20;99.90
13892;DHT22;7016;48.172;8.058;2023-11-22T08:29:56;5.30;99.90
13892;DHT22;7016;48.172;8.058;2023-11-22T08:32:22;5.30;99.90
13892;DHT22;7016;48.172;8.058;2023-11-22T08:34:53;5.40;99.90
13892;DHT22;7016;48.172;8.058;2023-11-22T08:37:19;5.40;99.90
13892;DHT22;7016;48.172;8.058;2023-11-22T08:39:44;5.60;99.90
13892;DHT22;7016;48.172;8.058;2023-11-22T08:42:10;5.70;99.90
13892;DHT22;7016;48.172;8.058;2023-11-22T08:44:36;5.60;99.90
13892;DHT22;7016;48.172;8.058;2023-11-22T08:47:02;5.60;99.90
13892;DHT22;7016;48.172;8.058;2023-11-22T08:49:31;5.60;99.90
13892;DHT22;7016;48.172;8.058;2023-11-22T08:51:57;5.70;99.90
13892;DHT22;7016;48.172;8.058;2023-11-22T08:54:25;5.80;99.90
13892;DHT22;7016;48.172;8.058;2023-11-22T08:56:54;5.80;99.90
13892;DHT22;7016;48.172;8.058;2023-11-22T08:59:22;5.80;99.90
13892;DHT22;7016;48.172;8.058;2023-11-22T09:01:47;5.60;99.90
13892;DHT22;7016;48.172;8.058;2023-11-22T09:04:13;5.60;99.90
13892;DHT22;7016;48.172;8.058;2023-11-22T09:06:39;5.60;99.90
13892;DHT22;7016;48.172;8.058;2023-11-22T09:09:05;5.50;99.90
13892;DHT22;7016;48.172;8.058;2023-11-22T09:11:31;5.70;99.90
13892;DHT22;7016;48.172;8.058;2023-11-22T09:13:58;5.80;99.90
13892;DHT22;7016;48.172;8.058;2023-11-22T09:16:24;5.90;99.90
13892;DHT22;7016;48.172;8.058;2023-11-22T09:18:53;5.90;99.90
13892;DHT22;7016;48.172;8.058;2023-11-22T09:21:20;5.90;99.90
13892;DHT22;7016;48.172;8.058;2023-11-22T09:23:46;5.90;99.90
13892;DHT22;7016;48.172;8.058;2023-11-22T09:26:14;5.80;99.90
13892;DHT22;7016;48.172;8.058;2023-11-22T09:28:40;5.80;99.90
13892;DHT22;7016;48.172;8.058;2023-11-22T09:31:09;5.90;99.90
13892;DHT22;7016;48.172;8.058;2023-11-22T09:33:36;6.00;99.90
13892;DHT22;7016;48.172;8.058;2023-11-22T09:36:02;5.80;99.90
13892;DHT22;7016;48.172;8.058;2023-11-22T09:38:29;5.80;99.90
13892;DHT22;7016;48.172;8.058;2023-11-22T09:40:56;5.90;99.90
13892;DHT22;7016;48.172;8.058;2023-11-22T09:43:22;5.90;99.90
13892;DHT22;7016;48.172;8.058;2023-11-22T09:45:50;6.10;99.90
13892;DHT22;7016;48.172;8.058;2023-11-22T09:48:20;6.20;99.90
13892;DHT22;7016;48.172;8.058;2023-11-22T09:51:04;6.20;99.90
13892;DHT22;7016;48.172;8.058;2023-11-22T09:53:58;6.20;99.90
13892;DHT22;7016;48.172;8.058;2023-11-22T09:56:26;6.20;99.90
13892;DHT22;7016;48.172;8.058;2023-11-22T09:58:57;6.20;99.90
13892;DHT22;7016;48.172;8.058;2023-11-22T10:01:27;6.20;99.90
13892;DHT22;7016;48.172;8.058;2023-11-22T10:03:54;6.20;99.90
13892;DHT22;7016;48.172;8.058;2023-11-22T10:06:20;6.00;99.90
13892;DHT22;7016;48.172;8.058;2023-11-22T10:08:46;5.80;99.90
13892;DHT22;7016;48.172;8.058;2023-11-22T10:11:16;5.70;99.90
13892;DHT22;7016;48.172;8.058;2023-11-22T10:13:52;5.80;99.90
13892;DHT22;7016;48.172;8.058;2023-11-22T10:16:19;5.80;99.90
13892;DHT22;7016;48.172;8.058;2023-11-22T10:18:47;5.80;99.90
13892;DHT22;7016;48.172;8.058;2023-11-22T10:23:53;6.00;99.90
13892;DHT22;7016;48.172;8.058;2023-11-22T10:26:19;6.00;99.90
13892;DHT22;7016;48.172;8.058;2023-11-22T10:28:45;6.10;99.90
13892;DHT22;7016;48.172;8.058;2023-11-22T10:31:11;6.00;99.90
13892;DHT22;7016;48.172;8.058;2023-11-22T10:33:40;6.10;99.90
13892;DHT22;7016;48.172;8.058;2023-11-22T10:36:09;5.90;99.90
13892;DHT22;7016;48.172;8.058;2023-11-22T10:38:35;6.00;99.90
13892;DHT22;7016;48.172;8.058;2023-11-22T10:41:05;5.90;99.90
13892;DHT22;7016;48.172;8.058;2023-11-22T10:43:31;6.00;99.90
13892;DHT22;7016;48.172;8.058;2023-11-22T10:46:02;6.10;99.90
13892;DHT22;7016;48.172;8.058;2023-11-22T10:48:28;6.00;99.90
13892;DHT22;7016;48.172;8.058;2023-11-22T10:50:57;6.00;99.90
13892;DHT22;7016;48.172;8.058;2023-11-22T10:53:32;6.00;99.90
13892;DHT22;7016;48.172;8.058;2023-11-22T10:56:12;6.00;99.90
13892;DHT22;7016;48.172;8.058;2023-11-22T10:58:48;5.90;99.90
13892;DHT22;7016;48.172;8.058;2023-11-22T11:01:18;6.00;99.90
13892;DHT22;7016;48.172;8.058;2023-11-22T11:03:49;5.90;99.90
13892;DHT22;7016;48.172;8.058;2023-11-22T11:06:22;5.80;99.90
13892;DHT22;7016;48.172;8.058;2023-11-22T11:08:54;5.90;99.90
13892;DHT22;7016;48.172;8.058;2023-11-22T11:11:20;5.90;99.90
13892;DHT22;7016;48.172;8.058;2023-11-22T11:13:47;5.80;99.90
13892;DHT22;7016;48.172;8.058;2023-11-22T11:16:14;5.90;99.90
13892;DHT22;7016;48.172;8.058;2023-11-22T11:18:40;6.00;99.90
13892;DHT22;7016;48.172;8.058;2023-11-22T11:21:09;6.10;99.90
13892;DHT22;7016;48.172;8.058;2023-11-22T11:23:41;5.90;99.90
13892;DHT22;7016;48.172;8.058;2023-11-22T11:26:19;5.90;99.90
13892;DHT22;7016;48.172;8.058;2023-11-22T11:28:48;5.90;99.90
13892;DHT22;7016;48.172;8.058;2023-11-22T11:31:15;6.00;99.90
13892;DHT22;7016;48.172;8.058;2023-11-22T11:36:31;6.10;99.90
13892;DHT22;7016;48.172;8.058;2023-11-22T11:39:02;6.10;99.90
13892;DHT22;7016;48.172;8.058;2023-11-22T11:41:34;5.90;99.90
13892;DHT22;7016;48.172;8.058;2023-11-22T11:44:03;6.00;99.90
13892;DHT22;7016;48.172;8.058;2023-11-22T11:46:30;6.00;99.90
13892;DHT22;7016;48.172;8.058;2023-11-22T11:48:56;6.10;99.90
13892;DHT22;7016;48.172;8.058;2023-11-22T11:51:24;6.20;99.90
13892;DHT22;7016;48.172;8.058;2023-11-22T11:53:50;5.90;99.90
13892;DHT22;7016;48.172;8.058;2023-11-22T11:56:16;5.90;99.90
13892;DHT22;7016;48.172;8.058;2023-11-22T11:58:44;5.90;99.90
13892;DHT22;7016;48.172;8.058;2023-11-22T12:01:13;5.80;99.90
13892;DHT22;7016;48.172;8.058;2023-11-22T12:03:40;5.70;99.90
13892;DHT22;7016;48.172;8.058;2023-11-22T12:06:06;5.70;99.90
13892;DHT22;7016;48.172;8.058;2023-11-22T12:08:32;5.70;99.90
13892;DHT22;7016;48.172;8.058;2023-11-22T12:11:02;5.80;99.90
13892;DHT22;7016;48.172;8.058;2023-11-22T12:13:38;5.90;99.90
13892;DHT22;7016;48.172;8.058;2023-11-22T12:16:05;5.90;99.90
13892;DHT22;7016;48.172;8.058;2023-11-22T12:18:43;5.80;99.90
13892;DHT22;7016;48.172;8.058;2023-11-22T12:21:09;5.80;99.90
13892;DHT22;7016;48.172;8.058;2023-11-22T12:23:44;5.70;99.90
13892;DHT22;7016;48.172;8.058;2023-11-22T12:26:13;5.80;99.90
13892;DHT22;7016;48.172;8.058;2023-11-22T12:28:40;5.90;99.90
13892;DHT22;7016;48.172;8.058;2023-11-22T12:31:08;5.90;99.90
13892;DHT22;7016;48.172;8.058;2023-11-22T12:33:38;5.90;99.90
13892;DHT22;7016;48.172;8.058;2023-11-22T12:36:06;5.90;99.90
13892;DHT22;7016;48.172;8.058;2023-11-22T12:38:34;5.90;99.90
13892;DHT22;7016;48.172;8.058;2023-11-22T12:41:00;5.80;99.90
13892;DHT22;7016;48.172;8.058;2023-11-22T12:43:29;5.90;99.90
13892;DHT22;7016;48.172;8.058;2023-11-22T12:46:06;5.80;99.90
13892;DHT22;7016;48.172;8.058;2023-11-22T12:48:33;5.80;99.90
13892;DHT22;7016;48.172;8.058;2023-11-22T12:50:59;5.80;99.90
13892;DHT22;7016;48.172;8.058;2023-11-22T12:53:26;6.00;99.90
13892;DHT22;7016;48.172;8.058;2023-11-22T12:55:54;6.00;99.90
13892;DHT22;7016;48.172;8.058;2023-11-22T12:58:25;5.80;99.90
13892;DHT22;7016;48.172;8.058;2023-11-22T13:00:52;5.60;99.90
13892;DHT22;7016;48.172;8.058;2023-11-22T13:03:23;5.60;99.90
13892;DHT22;7016;48.172;8.058;2023-11-22T13:05:50;5.70;99.90
13892;DHT22;7016;48.172;8.058;2023-11-22T13:08:17;5.70;99.90
13892;DHT22;7016;48.172;8.058;2023-11-22T13:13:10;5.80;99.90
13892;DHT22;7016;48.172;8.058;2023-11-22T13:15:37;5.70;99.90
13892;DHT22;7016;48.172;8.058;2023-11-22T13:18:02;5.70;99.90
13892;DHT22;7016;48.172;8.058;2023-11-22T13:20:28;5.80;99.90
13892;DHT22;7016;48.172;8.058;2023-11-22T13:22:54;5.70;99.90
13892;DHT22;7016;48.172;8.058;2023-11-22T13:25:21;5.80;99.90
13892;DHT22;7016;48.172;8.058;2023-11-22T13:27:49;5.80;99.90
13892;DHT22;7016;48.172;8.058;2023-11-22T13:30:19;5.80;99.90
13892;DHT22;7016;48.172;8.058;2023-11-22T13:32:49;5.80;99.90
13892;DHT22;7016;48.172;8.058;2023-11-22T13:35:15;5.80;99.90
13892;DHT22;7016;48.172;8.058;2023-11-22T13:37:46;5.80;99.90
13892;DHT22;7016;48.172;8.058;2023-11-22T13:40:17;5.90;99.90
13892;DHT22;7016;48.172;8.058;2023-11-22T13:42:48;5.80;99.90
13892;DHT22;7016;48.172;8.058;2023-11-22T13:45:16;5.80;99.90
13892;DHT22;7016;48.172;8.058;2023-11-22T13:47:46;5.80;99.90
13892;DHT22;7016;48.172;8.058;2023-11-22T13:50:16;5.80;99.90
13892;DHT22;7016;48.172;8.058;2023-11-22T13:52:47;5.70;99.90
13892;DHT22;7016;48.172;8.058;2023-11-22T13:55:14;5.70;99.90
13892;DHT22;7016;48.172;8.058;2023-11-22T13:57:42;5.80;99.90
13892;DHT22;7016;48.172;8.058;2023-11-22T14:00:08;5.80;99.90
13892;DHT22;7016;48.172;8.058;2023-11-22T14:02:36;5.70;99.90
13892;DHT22;7016;48.172;8.058;2023-11-22T14:05:03;5.70;99.90
13892;DHT22;7016;48.172;8.058;2023-11-22T14:07:34;5.60;99.90
13892;DHT22;7016;48.172;8.058;2023-11-22T14:10:01;5.70;99.90
13892;DHT22;7016;48.172;8.058;2023-11-22T14:12:29;5.80;99.90
13892;DHT22;7016;48.172;8.058;2023-11-22T14:14:56;5.80;99.90
13892;DHT22;7016;48.172;8.058;2023-11-22T14:17:21;5.80;99.90
13892;DHT22;7016;48.172;8.058;2023-11-22T14:19:47;5.80;99.90
13892;DHT22;7016;48.172;8.058;2023-11-22T14:22:12;5.80;99.90
13892;DHT22;7016;48.172;8.058;2023-11-22T14:24:43;5.80;99.90
13892;DHT22;7016;48.172;8.058;2023-11-22T14:27:13;5.70;99.90
13892;DHT22;7016;48.172;8.058;2023-11-22T14:29:39;5.60;99.90
13892;DHT22;7016;48.172;8.058;2023-11-22T14:32:06;5.40;99.90
13892;DHT22;7016;48.172;8.058;2023-11-22T14:34:32;5.30;99.90
13892;DHT22;7016;48.172;8.058;2023-11-22T14:36:58;5.30;99.90
13892;DHT22;7016;48.172;8.058;2023-11-22T14:39:24;5.40;99.90
13892;DHT22;7016;48.172;8.058;2023-11-22T14:41:50;5.50;99.90
13892;DHT22;7016;48.172;8.058;2023-11-22T14:44:17;5.50;99.90
13892;DHT22;7016;48.172;8.058;2023-11-22T14:46:43;5.50;99.90
13892;DHT22;7016;48.172;8.058;2023-11-22T14:49:09;5.50;99.90
13892;DHT22;7016;48.172;8.058;2023-11-22T14:51:35;5.60;99.90
13892;DHT22;7016;48.172;8.058;2023-11-22T14:54:01;5.60;99.90
13892;DHT22;7016;48.172;8.058;2023-11-22T14:56:26;5.60;99.90
13892;DHT22;7016;48.172;8.058;2023-11-22T14:58:52;5.50;99.90
13892;DHT22;7016;48.172;8.058;2023-11-22T15:01:21;5.40;99.90
13892;DHT22;7016;48.172;8.058;2023-11-22T15:03:49;5.50;99.90
13892;DHT22;7016;48.172;8.058;2023-11-22T15:06:15;5.60;99.90
13892;DHT22;7016;48.172;8.058;2023-11-22T15:08:41;5.60;99.90
13892;DHT22;7016;48.172;8.058;2023-11-22T15:11:07;5.60;99.90
13892;DHT22;7016;48.172;8.058;2023-11-22T15:13:34;5.60;99.90
13892;DHT22;7016;48.172;8.058;2023-11-22T15:16:01;5.70;99.90
13892;DHT22;7016;48.172;8.058;2023-11-22T15:18:27;5.60;99.90
13892;DHT22;7016;48.172;8.058;2023-11-22T15:20:53;5.50;99.90
13892;DHT22;7016;48.172;8.058;2023-11-22T15:23:19;5.40;99.90
13892;DHT22;7016;48.172;8.058;2023-11-22T15:25:47;5.50;99.90
13892;DHT22;7016;48.172;8.058;2023-11-22T15:28:14;5.50;99.90
13892;DHT22;7016;48.172;8.058;2023-11-22T15:30:48;5.50;99.90
13892;DHT22;7016;48.172;8.058;2023-11-22T15:33:15;5.40;99.90
13892;DHT22;7016;48.172;8.058;2023-11-22T15:35:47;5.40;99.90
13892;DHT22;7016;48.172;8.058;2023-11-22T15:38:20;5.40;99.90
13892;DHT22;7016;48.172;8.058;2023-11-22T15:40:50;5.40;99.90
13892;DHT22;7016;48.172;8.058;2023-11-22T15:43:16;5.40;99.90
13892;DHT22;7016;48.172;8.058;2023-11-22T15:45:42;5.40;99.90
13892;DHT22;7016;48.172;8.058;2023-11-22T15:48:08;5.40;99.90
13892;DHT22;7016;48.172;8.058;2023-11-22T15:50:34;5.40;99.90
13892;DHT22;7016;48.172;8.058;2023-11-22T15:53:00;5.40;99.90
13892;DHT22;7016;48.172;8.058;2023-11-22T15:55:27;5.20;99.90
13892;DHT22;7016;48.172;8.058;2023-11-22T15:57:54;5.20;99.90
13892;DHT22;7016;48.172;8.058;2023-11-22T16:00:20;5.20;99.90
13892;DHT22;7016;48.172;8.058;2023-11-22T16:02:48;5.20;99.90
13892;DHT22;7016;48.172;8.058;2023-11-22T16:05:14;5.30;99.90
13892;DHT22;7016;48.172;8.058;2023-11-22T16:07:40;5.40;99.90
13892;DHT22;7016;48.172;8.058;2023-11-22T16:10:06;5.40;99.90
13892;DHT22;7016;48.172;8.058;2023-11-22T16:12:34;5.40;99.90